createdAt,value
2022-12-18T00:01:22.425Z,-6.72
2022-12-18T00:03:49.912Z,-6.62
2022-12-18T00:06:17.647Z,-6.50
2022-12-18T00:08:45.877Z,-6.45
2022-12-18T00:11:19.472Z,-6.57
2022-12-18T00:13:47.701Z,-6.55
2022-12-18T00:16:17.563Z,-6.84
2022-12-18T00:18:44.768Z,-6.68
2022-12-18T00:21:13.796Z,-6.80
2022-12-18T00:23:43.939Z,-6.95
2022-12-18T00:26:15.884Z,-6.90
2022-12-18T00:28:44.423Z,-6.74
2022-12-18T00:31:14.663Z,-6.79
2022-12-18T00:33:42.907Z,-6.83
2022-12-18T00:36:19.055Z,-6.68
2022-12-18T00:38:47.013Z,-6.80
2022-12-18T00:41:39.325Z,-6.55
2022-12-18T00:44:10.052Z,-6.51
2022-12-18T00:46:37.067Z,-6.48
2022-12-18T00:49:05.146Z,-6.41
2022-12-18T00:51:31.958Z,-6.48
2022-12-18T00:53:59.387Z,-6.62
2022-12-18T00:56:26.530Z,-6.87
2022-12-18T00:58:53.539Z,-6.87
2022-12-18T01:01:21.117Z,-6.74
2022-12-18T01:03:48.464Z,-6.61
2022-12-18T01:06:16.820Z,-6.75
2022-12-18T01:08:44.048Z,-6.72
2022-12-18T01:11:18.057Z,-6.72
2022-12-18T01:13:45.708Z,-6.77
2022-12-18T01:16:14.447Z,-6.83
2022-12-18T01:18:41.429Z,-7.05
2022-12-18T01:21:14.646Z,-6.96
2022-12-18T01:23:41.922Z,-7.00
2022-12-18T01:26:12.250Z,-6.93
2022-12-18T01:28:39.770Z,-7.12
2022-12-18T01:31:19.541Z,-7.30
2022-12-18T01:33:49.380Z,-6.96
2022-12-18T01:36:18.642Z,-6.93
2022-12-18T01:38:46.525Z,-6.97
2022-12-18T01:41:14.959Z,-7.00
2022-12-18T01:43:47.977Z,-7.02
2022-12-18T01:46:15.747Z,-7.04
2022-12-18T01:48:45.192Z,-7.11
2022-12-18T01:51:13.396Z,-7.02
2022-12-18T01:53:43.157Z,-7.06
2022-12-18T01:56:16.167Z,-7.06
2022-12-18T01:59:03.510Z,-7.12
2022-12-18T02:01:33.189Z,-7.17
2022-12-18T02:04:26.846Z,-7.17
2022-12-18T02:07:33.194Z,-7.15
2022-12-18T02:10:02.235Z,-7.07
2022-12-18T02:12:43.977Z,-7.08
2022-12-18T02:15:22.330Z,-7.12
2022-12-18T02:17:57.641Z,-7.15
2022-12-18T02:20:48.767Z,-7.13
2022-12-18T02:23:57.049Z,-7.26
2022-12-18T02:26:45.213Z,-7.02
2022-12-18T02:29:22.741Z,-7.07
2022-12-18T02:31:57.603Z,-7.16
2022-12-18T02:34:30.698Z,-7.11
2022-12-18T02:37:01.796Z,-7.11
2022-12-18T02:39:33.061Z,-7.29
2022-12-18T02:42:03.308Z,-7.27
2022-12-18T02:44:30.312Z,-7.49
2022-12-18T02:46:57.609Z,-7.64
2022-12-18T02:49:48.699Z,-7.83
2022-12-18T02:52:23.881Z,-7.61
2022-12-18T02:55:08.981Z,-7.40
2022-12-18T02:57:45.561Z,-7.44
2022-12-18T03:00:16.924Z,-7.32
2022-12-18T03:02:54.798Z,-7.39
2022-12-18T03:05:42.733Z,-7.11
2022-12-18T03:08:24.671Z,-7.06
2022-12-18T03:11:02.828Z,-7.09
2022-12-18T03:13:41.549Z,-7.20
2022-12-18T03:16:15.056Z,-7.19
2022-12-18T03:18:54.799Z,-7.09
2022-12-18T03:21:29.211Z,-6.90
2022-12-18T03:23:57.727Z,-7.07
2022-12-18T03:26:27.925Z,-6.84
2022-12-18T03:29:00.799Z,-6.93
2022-12-18T03:31:31.826Z,-6.87
2022-12-18T03:34:14.241Z,-6.66
2022-12-18T03:36:41.563Z,-6.62
2022-12-18T03:39:08.599Z,-6.59
2022-12-18T03:41:48.051Z,-6.60
2022-12-18T03:44:27.698Z,-6.54
2022-12-18T03:47:10.106Z,-6.46
2022-12-18T03:49:51.384Z,-6.70
2022-12-18T03:52:29.747Z,-6.57
2022-12-18T03:55:00.908Z,-6.67
2022-12-18T03:57:32.448Z,-6.59
2022-12-18T04:00:08.949Z,-6.53
2022-12-18T04:02:40.884Z,-6.47
2022-12-18T04:05:11.460Z,-6.51
2022-12-18T04:07:40.316Z,-6.51
2022-12-18T04:10:08.573Z,-6.48
2022-12-18T04:12:35.404Z,-6.34
2022-12-18T04:15:02.457Z,-6.45
2022-12-18T04:17:29.317Z,-6.63
2022-12-18T04:19:56.202Z,-6.46
2022-12-18T04:22:23.016Z,-6.25
2022-12-18T04:24:49.919Z,-6.17
2022-12-18T04:27:17.059Z,-6.29
2022-12-18T04:29:43.911Z,-6.28
2022-12-18T04:32:10.728Z,-6.22
2022-12-18T04:34:37.859Z,-6.32
2022-12-18T04:37:05.188Z,-6.34
2022-12-18T04:39:32.213Z,-6.29
2022-12-18T04:41:59.190Z,-6.23
2022-12-18T04:44:26.240Z,-6.25
2022-12-18T04:46:53.410Z,-6.26
2022-12-18T04:49:21.640Z,-6.19
2022-12-18T04:51:48.605Z,-6.13
2022-12-18T04:54:15.623Z,-6.22
2022-12-18T04:56:42.683Z,-6.09
2022-12-18T04:59:09.667Z,-6.02
2022-12-18T05:01:46.831Z,-6.10
2022-12-18T05:04:23.399Z,-6.01
2022-12-18T05:06:52.899Z,-5.94
2022-12-18T05:09:24.377Z,-6.17
2022-12-18T05:12:00.632Z,-6.10
2022-12-18T05:14:34.975Z,-5.85
2022-12-18T05:17:03.983Z,-5.88
2022-12-18T05:19:33.460Z,-5.91
2022-12-18T05:22:02.967Z,-5.71
2022-12-18T05:24:30.364Z,-5.76
2022-12-18T05:26:57.489Z,-5.67
2022-12-18T05:29:24.863Z,-5.82
2022-12-18T05:31:52.104Z,-5.88
2022-12-18T05:34:19.447Z,-6.02
2022-12-18T05:36:46.669Z,-5.90
2022-12-18T05:39:13.706Z,-5.74
2022-12-18T05:41:40.910Z,-5.87
2022-12-18T05:44:08.789Z,-6.24
2022-12-18T05:46:35.952Z,-6.31
2022-12-18T05:49:04.669Z,-6.13
2022-12-18T05:51:32.398Z,-6.13
2022-12-18T05:54:02.909Z,-6.14
2022-12-18T05:56:30.273Z,-6.06
2022-12-18T05:58:58.892Z,-5.88
2022-12-18T06:01:28.127Z,-6.02
2022-12-18T06:03:56.386Z,-5.72
2022-12-18T06:06:26.832Z,-5.78
2022-12-18T06:08:55.498Z,-5.73
2022-12-18T06:11:24.983Z,-5.76
2022-12-18T06:13:58.158Z,-5.57
2022-12-18T06:16:26.785Z,-5.56
2022-12-18T06:18:57.122Z,-5.50
2022-12-18T06:21:24.445Z,-5.62
2022-12-18T06:23:51.695Z,-5.50
2022-12-18T06:26:22.087Z,-5.61
2022-12-18T06:28:51.896Z,-5.46
2022-12-18T06:31:18.954Z,-5.43
2022-12-18T06:33:45.951Z,-5.38
2022-12-18T06:36:14.434Z,-5.36
2022-12-18T06:38:44.319Z,-5.36
2022-12-18T06:41:21.086Z,-5.19
2022-12-18T06:43:48.179Z,-5.51
2022-12-18T06:46:15.725Z,-5.23
2022-12-18T06:48:43.178Z,-5.21
2022-12-18T06:51:10.396Z,-5.27
2022-12-18T06:53:37.677Z,-5.42
2022-12-18T06:56:10.377Z,-5.26
2022-12-18T06:58:41.210Z,-5.02
2022-12-18T07:01:12.714Z,-5.32
2022-12-18T07:11:21.519Z,-5.18
2022-12-18T07:13:48.930Z,-5.17
2022-12-18T07:16:24.321Z,-5.03
2022-12-18T07:18:53.163Z,-5.03
2022-12-18T07:21:22.670Z,-4.97
2022-12-18T07:23:49.945Z,-4.94
2022-12-18T07:26:20.590Z,-5.25
2022-12-18T07:28:48.055Z,-4.94
2022-12-18T07:31:18.944Z,-5.11
2022-12-18T07:33:46.998Z,-5.13
2022-12-18T07:36:14.803Z,-4.98
2022-12-18T07:38:41.755Z,-4.95
2022-12-18T07:41:12.110Z,-5.03
2022-12-18T07:43:40.844Z,-4.86
2022-12-18T07:46:10.070Z,-4.88
2022-12-18T07:48:37.176Z,-4.85
2022-12-18T07:51:07.366Z,-4.84
2022-12-18T07:53:36.465Z,-4.71
2022-12-18T07:58:55.504Z,-4.69
2022-12-18T08:01:22.567Z,-4.53
2022-12-18T08:03:49.904Z,-4.50
2022-12-18T08:06:23.970Z,-4.40
2022-12-18T08:08:56.348Z,-4.42
2022-12-18T08:11:26.262Z,-4.37
2022-12-18T08:13:54.393Z,-4.28
2022-12-18T08:16:22.768Z,-4.16
2022-12-18T08:18:49.856Z,-4.17
2022-12-18T08:21:27.112Z,-4.04
2022-12-18T08:23:57.135Z,-3.90
2022-12-18T08:26:27.932Z,-3.91
2022-12-18T08:28:56.803Z,-3.78
2022-12-18T08:31:25.790Z,-3.77
2022-12-18T08:33:54.942Z,-3.78
2022-12-18T08:36:23.730Z,-3.65
2022-12-18T08:38:51.639Z,-3.57
2022-12-18T08:41:22.202Z,-3.50
2022-12-18T08:44:07.809Z,-3.45
2022-12-18T08:46:44.065Z,-3.40
2022-12-18T08:49:12.476Z,-3.38
2022-12-18T08:51:40.743Z,-3.32
2022-12-18T08:54:07.912Z,-3.34
2022-12-18T08:56:35.198Z,-3.29
2022-12-18T08:59:02.776Z,-3.36
2022-12-18T09:01:30.093Z,-3.17
2022-12-18T09:03:57.833Z,-3.17
2022-12-18T09:06:24.874Z,-3.15
2022-12-18T09:08:52.025Z,-3.23
2022-12-18T09:11:27.289Z,-3.16
2022-12-18T09:13:58.705Z,-3.03
2022-12-18T09:16:32.941Z,-2.94
2022-12-18T09:19:00.925Z,-2.87
2022-12-18T09:21:33.063Z,-2.83
2022-12-18T09:24:05.161Z,-2.75
2022-12-18T09:26:36.376Z,-2.76
2022-12-18T09:29:04.180Z,-2.64
2022-12-18T09:31:31.509Z,-2.62
2022-12-18T09:33:58.741Z,-2.55
2022-12-18T09:36:28.377Z,-2.51
2022-12-18T09:38:55.659Z,-2.46
2022-12-18T09:41:40.361Z,-2.40
2022-12-18T09:44:27.644Z,-2.35
2022-12-18T09:47:04.232Z,-2.23
2022-12-18T09:49:37.033Z,-2.21
2022-12-18T09:52:34.383Z,-2.10
2022-12-18T09:55:20.825Z,-2.03
2022-12-18T09:58:03.853Z,-1.96
2022-12-18T10:00:30.773Z,-1.84
2022-12-18T10:03:13.297Z,-1.78
2022-12-18T10:06:07.719Z,-1.80
2022-12-18T10:08:37.886Z,-1.71
2022-12-18T10:11:34.024Z,-1.68
2022-12-18T10:14:03.930Z,-1.66
2022-12-18T10:17:00.552Z,-1.58
2022-12-18T10:19:50.328Z,-1.53
2022-12-18T10:22:42.087Z,-1.45
2022-12-18T10:25:32.889Z,-1.40
2022-12-18T10:28:13.102Z,-1.34
2022-12-18T10:30:41.681Z,-1.28
2022-12-18T10:33:15.433Z,-1.24
2022-12-18T10:35:44.156Z,-1.16
2022-12-18T10:38:14.177Z,-1.05
2022-12-18T10:40:57.466Z,-1.08
2022-12-18T10:43:30.537Z,-1.03
2022-12-18T10:46:15.631Z,-1.02
2022-12-18T10:48:49.072Z,-0.96
2022-12-18T10:51:38.317Z,-0.99
2022-12-18T10:54:14.016Z,-1.00
2022-12-18T10:56:41.432Z,-0.95
2022-12-18T10:59:13.636Z,-0.94
2022-12-18T11:01:49.678Z,-0.87
2022-12-18T11:04:19.876Z,-0.78
2022-12-18T11:07:07.829Z,-0.70
2022-12-18T11:09:40.685Z,-0.72
2022-12-18T11:12:18.494Z,-0.66
2022-12-18T11:14:53.053Z,-0.66
2022-12-18T11:17:32.382Z,-0.63
2022-12-18T11:20:02.716Z,-0.52
2022-12-18T11:22:33.058Z,-0.57
2022-12-18T11:28:14.561Z,-0.56
2022-12-18T11:30:41.420Z,-0.55
2022-12-18T11:33:21.854Z,-0.51
2022-12-18T11:35:53.774Z,-0.51
2022-12-18T11:38:29.578Z,-0.45
2022-12-18T11:41:19.999Z,-0.48
2022-12-18T11:43:56.616Z,-0.45
2022-12-18T11:46:47.673Z,-0.46
2022-12-18T11:49:23.345Z,-0.40
2022-12-18T11:52:12.171Z,-0.34
2022-12-18T11:54:39.063Z,-0.38
2022-12-18T11:57:38.157Z,-0.38
2022-12-18T12:00:16.773Z,-0.37
2022-12-18T12:03:14.672Z,-0.35
2022-12-18T12:06:09.462Z,-0.36
2022-12-18T12:09:04.344Z,-0.36
2022-12-18T12:11:59.070Z,-0.39
2022-12-18T12:14:49.010Z,-0.30
2022-12-18T12:17:43.728Z,-0.28
2022-12-18T12:20:40.104Z,-0.23
2022-12-18T12:23:30.763Z,-0.34
2022-12-18T12:26:28.381Z,-0.24
2022-12-18T12:29:22.891Z,-0.23
2022-12-18T12:32:17.518Z,-0.24
2022-12-18T12:35:09.439Z,-0.22
2022-12-18T12:38:02.818Z,-0.26
2022-12-18T12:40:55.313Z,-0.28
2022-12-18T12:43:28.658Z,-0.21
2022-12-18T12:46:14.991Z,-0.26
2022-12-18T12:48:53.544Z,-0.26
2022-12-18T12:51:33.210Z,-0.29
2022-12-18T12:54:05.798Z,-0.29
2022-12-18T12:56:53.636Z,-0.26
2022-12-18T12:59:33.462Z,-0.25
2022-12-18T13:02:16.466Z,-0.18
2022-12-18T13:04:58.324Z,-0.24
2022-12-18T13:07:33.484Z,-0.26
2022-12-18T13:10:12.874Z,-0.21
2022-12-18T13:13:01.800Z,-0.21
2022-12-18T13:15:50.316Z,-0.16
2022-12-18T13:18:21.649Z,-0.21
2022-12-18T13:21:03.708Z,-0.17
2022-12-18T13:23:35.357Z,-0.17
2022-12-18T13:26:09.078Z,-0.14
2022-12-18T13:28:46.016Z,-0.16
2022-12-18T13:31:41.943Z,-0.20
2022-12-18T13:34:26.966Z,-0.20
2022-12-18T13:37:18.858Z,-0.25
2022-12-18T13:39:46.136Z,-0.24
2022-12-18T13:42:34.596Z,-0.31
2022-12-18T13:45:01.901Z,-0.26
2022-12-18T13:47:38.315Z,-0.30
2022-12-18T13:50:28.554Z,-0.29
2022-12-18T13:52:59.338Z,-0.27
2022-12-18T13:55:26.712Z,-0.32
2022-12-18T13:58:05.419Z,-0.32
2022-12-18T14:00:32.727Z,-0.37
2022-12-18T14:03:01.024Z,-0.38
2022-12-18T14:05:36.337Z,-0.44
2022-12-18T14:08:13.601Z,-0.40
2022-12-18T14:10:48.399Z,-0.44
2022-12-18T14:13:29.021Z,-0.45
2022-12-18T14:15:58.675Z,-0.45
2022-12-18T14:18:45.069Z,-0.44
2022-12-18T14:21:38.747Z,-0.43
2022-12-18T14:24:09.776Z,-0.49
2022-12-18T14:26:36.688Z,-0.47
2022-12-18T14:29:22.275Z,-0.43
2022-12-18T14:32:16.896Z,-0.43
2022-12-18T14:34:49.828Z,-0.43
2022-12-18T14:37:21.165Z,-0.44
2022-12-18T14:40:10.524Z,-0.45
2022-12-18T14:42:38.623Z,-0.51
2022-12-18T14:45:43.679Z,-0.50
2022-12-18T14:48:23.372Z,-0.57
2022-12-18T14:51:00.979Z,-0.57
2022-12-18T14:53:54.330Z,-0.59
2022-12-18T14:56:26.395Z,-0.55
2022-12-18T14:59:18.057Z,-0.62
2022-12-18T15:01:55.136Z,-0.64
2022-12-18T15:04:40.105Z,-0.66
2022-12-18T15:07:20.692Z,-0.66
2022-12-18T15:10:02.589Z,-0.68
2022-12-18T15:12:36.420Z,-0.65
2022-12-18T15:15:04.925Z,-0.68
2022-12-18T15:17:32.228Z,-0.73
2022-12-18T15:20:11.286Z,-0.73
2022-12-18T15:22:38.377Z,-0.77
2022-12-18T15:25:32.539Z,-0.78
2022-12-18T15:27:59.616Z,-0.75
2022-12-18T15:30:27.347Z,-0.83
2022-12-18T15:33:18.026Z,-0.86
2022-12-18T15:35:47.139Z,-0.86
2022-12-18T15:38:14.224Z,-0.84
2022-12-18T15:40:41.278Z,-0.83
2022-12-18T15:43:28.755Z,-0.87
2022-12-18T15:45:55.849Z,-0.86
2022-12-18T15:48:23.862Z,-0.90
2022-12-18T15:50:56.380Z,-0.88
2022-12-18T15:53:26.274Z,-0.94
2022-12-18T15:56:11.716Z,-0.96
2022-12-18T15:58:39.225Z,-0.92
2022-12-18T16:01:09.906Z,-0.97
2022-12-18T16:03:37.358Z,-0.95
2022-12-18T16:06:04.469Z,-0.93
2022-12-18T16:08:31.665Z,-0.96
2022-12-18T16:10:59.332Z,-0.99
2022-12-18T16:13:26.634Z,-0.97
2022-12-18T16:15:54.217Z,-1.01
2022-12-18T16:18:21.401Z,-1.01
2022-12-18T16:20:48.284Z,-1.02
2022-12-18T16:23:15.271Z,-0.97
2022-12-18T16:25:42.393Z,-1.00
2022-12-18T16:28:09.632Z,-0.98
2022-12-18T16:30:38.737Z,-0.99
2022-12-18T16:33:07.465Z,-0.99
2022-12-18T16:35:37.888Z,-1.00
2022-12-18T16:38:05.189Z,-0.97
2022-12-18T16:40:33.849Z,-1.01
2022-12-18T16:43:00.830Z,-1.02
2022-12-18T16:45:34.091Z,-1.07
2022-12-18T16:48:04.511Z,-1.10
2022-12-18T16:50:31.722Z,-1.10
2022-12-18T16:52:58.851Z,-1.12
2022-12-18T16:55:25.796Z,-1.15
2022-12-18T16:57:52.750Z,-1.13
2022-12-18T17:00:19.767Z,-1.15
2022-12-18T17:02:47.072Z,-1.11
2022-12-18T17:05:14.404Z,-1.11
2022-12-18T17:07:41.452Z,-1.16
2022-12-18T17:10:08.956Z,-1.11
2022-12-18T17:12:37.310Z,-1.13
2022-12-18T17:15:04.726Z,-1.17
2022-12-18T17:17:31.968Z,-1.19
2022-12-18T17:19:58.887Z,-1.15
2022-12-18T17:22:26.205Z,-1.14
2022-12-18T17:24:53.179Z,-1.13
2022-12-18T17:27:20.362Z,-1.12
2022-12-18T17:29:48.817Z,-1.18
2022-12-18T17:32:17.669Z,-1.18
2022-12-18T17:34:44.987Z,-1.14
2022-12-18T17:37:12.180Z,-1.19
2022-12-18T17:39:39.470Z,-1.19
2022-12-18T17:42:06.854Z,-1.22
2022-12-18T17:44:35.145Z,-1.15
2022-12-18T17:47:02.708Z,-1.22
2022-12-18T17:49:29.882Z,-1.20
2022-12-18T17:51:56.881Z,-1.15
2022-12-18T17:54:23.943Z,-1.15
2022-12-18T17:56:51.072Z,-1.16
2022-12-18T17:59:18.004Z,-1.16
2022-12-18T18:01:45.743Z,-1.16
2022-12-18T18:04:15.327Z,-1.13
2022-12-18T18:06:42.528Z,-1.11
2022-12-18T18:09:16.483Z,-1.13
2022-12-18T18:12:04.127Z,-1.12
2022-12-18T18:14:33.141Z,-1.14
2022-12-18T18:17:04.831Z,-1.13
2022-12-18T18:19:33.790Z,-1.13
2022-12-18T18:22:01.689Z,-1.12
2022-12-18T18:24:48.597Z,-1.14
2022-12-18T18:27:16.205Z,-1.18
2022-12-18T18:29:43.836Z,-1.10
2022-12-18T18:32:11.086Z,-1.13
2022-12-18T18:34:38.008Z,-1.10
2022-12-18T18:37:05.948Z,-1.13
2022-12-18T18:39:33.190Z,-1.11
2022-12-18T18:42:00.509Z,-1.10
2022-12-18T18:44:27.437Z,-1.10
2022-12-18T18:46:58.404Z,-1.07
2022-12-18T18:49:27.721Z,-1.11
2022-12-18T18:51:57.113Z,-1.15
2022-12-18T18:54:25.600Z,-1.13
2022-12-18T18:59:39.868Z,-1.12
2022-12-18T19:02:11.510Z,-1.10
2022-12-18T19:04:43.109Z,-1.08
2022-12-18T19:07:12.857Z,-1.07
2022-12-18T19:09:41.954Z,-1.05
2022-12-18T19:12:28.421Z,-1.03
2022-12-18T19:14:55.779Z,-1.04
2022-12-18T19:17:29.560Z,-0.96
2022-12-18T19:19:57.682Z,-1.01
2022-12-18T19:22:24.565Z,-1.00
2022-12-18T19:24:51.412Z,-0.94
2022-12-18T19:27:18.498Z,-0.94
2022-12-18T19:29:45.583Z,-0.97
2022-12-18T19:32:12.914Z,-0.92
2022-12-18T19:34:40.218Z,-0.89
2022-12-18T19:37:07.648Z,-0.91
2022-12-18T19:39:34.566Z,-0.92
2022-12-18T19:42:01.709Z,-0.92
2022-12-18T19:44:28.652Z,-0.88
2022-12-18T19:46:55.803Z,-0.85
2022-12-18T19:49:22.850Z,-0.87
2022-12-18T19:51:50.427Z,-0.84
2022-12-18T19:54:18.023Z,-0.84
2022-12-18T19:56:45.580Z,-0.84
2022-12-18T19:59:13.393Z,-0.80
2022-12-18T20:01:40.922Z,-0.88
2022-12-18T20:04:08.600Z,-0.78
2022-12-18T20:06:47.435Z,-0.83
2022-12-18T20:09:14.973Z,-0.83
2022-12-18T20:11:42.712Z,-0.93
2022-12-18T20:14:11.436Z,-0.85
2022-12-18T20:16:38.726Z,-0.86
2022-12-18T20:19:06.995Z,-0.82
2022-12-18T20:21:34.716Z,-0.82
2022-12-18T20:24:02.163Z,-0.81
2022-12-18T20:26:29.366Z,-0.83
2022-12-18T20:28:56.739Z,-0.87
2022-12-18T20:31:24.460Z,-0.82
2022-12-18T20:33:52.173Z,-0.87
2022-12-18T20:36:23.583Z,-0.88
2022-12-18T20:38:57.267Z,-0.87
2022-12-18T20:41:26.320Z,-0.81
2022-12-18T20:43:58.798Z,-0.84
2022-12-18T20:46:26.039Z,-0.80
2022-12-18T20:48:53.143Z,-0.80
2022-12-18T20:51:21.039Z,-0.83
2022-12-18T20:53:48.830Z,-0.84
2022-12-18T20:56:21.875Z,-0.78
2022-12-18T20:58:54.826Z,-0.81
2022-12-18T21:01:24.226Z,-0.83
2022-12-18T21:03:52.829Z,-0.87
2022-12-18T21:06:22.822Z,-0.81
2022-12-18T21:08:49.952Z,-0.85
2022-12-18T21:11:38.265Z,-0.87
2022-12-18T21:14:10.389Z,-0.85
2022-12-18T21:16:37.562Z,-0.87
2022-12-18T21:19:04.627Z,-0.90
2022-12-18T21:21:35.898Z,-0.88
2022-12-18T21:24:07.631Z,-0.82
2022-12-18T21:26:34.528Z,-0.86
2022-12-18T21:29:07.632Z,-0.81
2022-12-18T21:31:37.554Z,-0.78
2022-12-18T21:34:06.795Z,-0.82
2022-12-18T21:36:34.940Z,-0.77
2022-12-18T21:39:02.289Z,-0.75
2022-12-18T21:41:47.810Z,-0.76
2022-12-18T21:44:17.891Z,-0.80
2022-12-18T21:46:51.489Z,-0.82
2022-12-18T21:49:22.856Z,-0.81
2022-12-18T21:51:55.483Z,-0.77
2022-12-18T21:54:23.374Z,-0.77
2022-12-18T21:56:55.774Z,-0.79
2022-12-18T21:59:25.200Z,-0.77
2022-12-18T22:01:54.633Z,-0.75
2022-12-18T22:04:22.731Z,-0.75
2022-12-18T22:06:50.038Z,-0.74
2022-12-18T22:09:20.618Z,-0.74
2022-12-18T22:11:49.594Z,-0.73
2022-12-18T22:14:16.956Z,-0.73
2022-12-18T22:16:44.665Z,-0.79
2022-12-18T22:19:12.545Z,-0.70
2022-12-18T22:21:46.521Z,-0.71
2022-12-18T22:24:16.803Z,-0.75
2022-12-18T22:26:45.412Z,-0.74
2022-12-18T22:29:39.716Z,-0.71
2022-12-18T22:32:10.320Z,-0.71
2022-12-18T22:34:39.319Z,-0.70
2022-12-18T22:37:06.671Z,-0.73
2022-12-18T22:39:33.748Z,-0.67
2022-12-18T22:42:00.879Z,-0.69
2022-12-18T22:44:28.500Z,-0.67
2022-12-18T22:47:05.965Z,-0.63
2022-12-18T22:49:35.688Z,-0.62
2022-12-18T22:52:04.645Z,-0.59
2022-12-18T22:54:31.720Z,-0.60
2022-12-18T22:56:58.600Z,-0.62
2022-12-18T22:59:25.534Z,-0.60
2022-12-18T23:01:57.082Z,-0.59
2022-12-18T23:04:29.987Z,-0.53
2022-12-18T23:07:04.603Z,-0.50
2022-12-18T23:09:32.211Z,-0.51
2022-12-18T23:11:59.317Z,-0.51
2022-12-18T23:14:26.293Z,-0.52
2022-12-18T23:16:53.418Z,-0.44
2022-12-18T23:19:21.438Z,-0.43
2022-12-18T23:21:50.832Z,-0.44
2022-12-18T23:24:17.766Z,-0.47
2022-12-18T23:26:44.923Z,-0.45
2022-12-18T23:29:11.795Z,-0.41
2022-12-18T23:31:39.745Z,-0.40
2022-12-18T23:34:08.718Z,-0.39
2022-12-18T23:36:45.487Z,-0.43
2022-12-18T23:39:17.436Z,-0.39
2022-12-18T23:41:59.903Z,-0.39
2022-12-18T23:44:27.629Z,-0.35
2022-12-18T23:46:54.988Z,-0.36
2022-12-18T23:49:22.864Z,-0.32
2022-12-18T23:51:50.278Z,-0.32
2022-12-18T23:54:17.344Z,-0.27
2022-12-18T23:56:49.337Z,-0.24
2022-12-18T23:59:16.222Z,-0.20
